Time;durP1;ratioP1;P1;durP2;ratioP2;P2;SDS_P1;SDS_P2;PMS_P1;PMS_P2;Temp;Humidity;BMP_temperature;BMP_pressure;BME280_temperature;BME280_humidity;BME280_pressure;Samples;Min_cycle;Max_cycle;Signal;HPM_P1;HPM_P2
2021/12/21 00:00:29;;;;;;;37.17;17.80;;;-1.80;99.90;;;;;;5095763;27;20310;-86
2021/12/21 00:02:55;;;;;;;40.90;18.65;;;-1.80;99.90;;;;;;5120945;27;20625;-87
2021/12/21 00:05:27;;;;;;;35.53;18.58;;;-1.80;99.90;;;;;;5107841;27;20050;-87
2021/12/21 00:07:54;;;;;;;38.30;17.58;;;-1.80;99.90;;;;;;5113536;27;20047;-87
2021/12/21 00:10:22;;;;;;;33.28;16.60;;;-1.80;99.90;;;;;;5096149;27;20043;-87
2021/12/21 00:15:54;;;;;;;35.08;16.60;;;-1.80;99.90;;;;;;5127471;27;20051;-88
2021/12/21 00:25:36;;;;;;;34.47;17.17;;;-1.90;99.90;;;;;;5112312;27;20051;-88
2021/12/21 00:28:02;;;;;;;32.90;16.13;;;-1.10;99.90;;;;;;5098923;27;20038;-87
2021/12/21 00:30:28;;;;;;;33.40;16.27;;;-1.90;99.90;;;;;;5095224;27;20138;-85
2021/12/21 00:32:54;;;;;;;39.17;16.75;;;-1.90;99.90;;;;;;5111576;27;20779;-87
2021/12/21 00:35:20;;;;;;;33.50;16.52;;;-1.90;99.90;;;;;;5079720;28;20051;-87
2021/12/21 00:37:47;;;;;;;34.22;16.40;;;-1.90;99.90;;;;;;5090164;28;20047;-86
2021/12/21 00:40:13;;;;;;;37.50;15.93;;;-1.90;99.90;;;;;;5083991;28;20407;-86
2021/12/21 00:42:39;;;;;;;35.58;16.02;;;-1.90;99.90;;;;;;5094172;27;20042;-87
2021/12/21 00:45:05;;;;;;;33.78;16.73;;;-2.00;99.90;;;;;;5074098;28;20380;-87
2021/12/21 00:47:34;;;;;;;30.67;15.82;;;-1.90;99.90;;;;;;5089022;28;20043;-86
2021/12/21 00:50:02;;;;;;;36.38;16.73;;;-2.00;99.90;;;;;;5090999;28;20051;-86
2021/12/21 00:52:29;;;;;;;32.00;15.10;;;-2.00;99.90;;;;;;5080344;28;20126;-85
2021/12/21 00:54:54;;;;;;;36.15;16.25;;;-2.00;99.90;;;;;;5069006;28;20104;-86
2021/12/21 00:57:20;;;;;;;37.70;15.57;;;-2.00;99.90;;;;;;5090482;27;20046;-85
2021/12/21 00:59:46;;;;;;;32.90;16.08;;;-2.10;99.90;;;;;;5093040;28;20039;-85
2021/12/21 01:02:12;;;;;;;33.78;15.23;;;-2.00;99.90;;;;;;5088145;28;20039;-85
2021/12/21 01:04:43;;;;;;;29.23;14.40;;;-2.10;99.90;;;;;;5071532;28;20130;-85
2021/12/21 01:07:36;;;;;;;31.10;14.95;;;-2.10;99.90;;;;;;5087935;28;20059;-85
2021/12/21 01:12:51;;;;;;;27.90;14.45;;;-2.10;99.90;;;;;;5089481;28;20144;-85
2021/12/21 01:15:41;;;;;;;28.05;13.95;;;-2.10;99.90;;;;;;5071133;28;20494;-85
2021/12/21 01:18:16;;;;;;;29.23;14.20;;;-2.10;99.90;;;;;;5084978;28;20039;-85
2021/12/21 01:20:49;;;;;;;25.40;13.05;;;-1.30;99.90;;;;;;5094291;28;20154;-85
2021/12/21 01:23:47;;;;;;;27.17;13.93;;;-2.20;99.90;;;;;;5110379;27;20051;-84
2021/12/21 01:26:30;;;;;;;27.98;14.20;;;-2.20;99.90;;;;;;5089145;28;20143;-84
2021/12/21 01:29:46;;;;;;;27.35;13.15;;;-2.20;99.90;;;;;;5092907;28;20050;-85
2021/12/21 01:31:57;;;;;;;29.00;13.48;;;-2.20;99.90;;;;;;5078934;28;20411;-85
2021/12/21 01:42:18;;;;;;;28.48;12.23;;;-2.20;99.90;;;;;;5115979;27;20122;-84
2021/12/21 01:49:59;;;;;;;25.75;12.27;;;-2.30;99.90;;;;;;5117772;27;20043;-84
2021/12/21 01:52:27;;;;;;;29.92;12.98;;;-2.30;99.90;;;;;;5108255;27;20050;-84
2021/12/21 01:54:54;;;;;;;23.52;12.10;;;-2.30;99.90;;;;;;5108462;27;20122;-84
2021/12/21 01:57:20;;;;;;;26.25;12.68;;;-2.30;99.90;;;;;;5116059;27;20121;-84
2021/12/21 01:59:48;;;;;;;26.40;11.68;;;-2.30;99.90;;;;;;5110798;27;20057;-84
2021/12/21 02:02:16;;;;;;;26.38;12.35;;;-2.30;99.90;;;;;;5109338;27;20046;-84
2021/12/21 02:04:43;;;;;;;23.00;11.63;;;-2.40;99.90;;;;;;5091561;27;20047;-83
2021/12/21 02:07:10;;;;;;;27.38;12.70;;;-2.40;99.90;;;;;;5108446;27;20322;-84
2021/12/21 02:09:39;;;;;;;24.20;12.18;;;-2.40;99.90;;;;;;5096140;27;20278;-84
2021/12/21 02:12:07;;;;;;;25.77;11.98;;;-2.40;99.90;;;;;;5102159;27;20046;-84
2021/12/21 02:14:34;;;;;;;27.15;12.32;;;-2.40;99.90;;;;;;5127097;27;20047;-83
2021/12/21 02:19:34;;;;;;;27.75;12.82;;;-2.40;99.90;;;;;;5108748;27;20413;-83
2021/12/21 02:22:09;;;;;;;24.98;11.07;;;-2.50;99.90;;;;;;5135572;27;20164;-83
2021/12/21 02:24:45;;;;;;;25.23;11.23;;;-2.50;99.90;;;;;;5108221;27;20039;-84
2021/12/21 02:27:29;;;;;;;22.27;11.38;;;-2.50;99.90;;;;;;5089388;28;20050;-83
2021/12/21 02:29:55;;;;;;;22.25;10.70;;;-2.50;99.90;;;;;;5082874;27;20044;-83
2021/12/21 02:32:22;;;;;;;24.55;11.85;;;-2.50;99.90;;;;;;5088208;27;20492;-84
2021/12/21 02:34:49;;;;;;;22.80;11.18;;;-2.50;99.90;;;;;;5094882;28;20051;-83
2021/12/21 02:37:15;;;;;;;20.10;10.55;;;-2.50;99.90;;;;;;5083714;27;20027;-83
2021/12/21 02:39:41;;;;;;;24.10;11.52;;;-2.50;99.90;;;;;;5091896;27;20491;-83
2021/12/21 02:42:07;;;;;;;27.67;10.68;;;-2.50;99.90;;;;;;5108428;27;20055;-83
2021/12/21 02:44:33;;;;;;;24.17;11.63;;;-2.60;99.90;;;;;;5091227;28;20415;-83
2021/12/21 02:46:59;;;;;;;24.63;11.20;;;-2.60;99.90;;;;;;5071085;28;20043;-83
2021/12/21 02:49:25;;;;;;;22.60;10.90;;;-2.60;99.90;;;;;;5087488;28;20035;-82
2021/12/21 02:51:51;;;;;;;20.00;10.68;;;-2.60;99.90;;;;;;5088533;28;20589;-83
2021/12/21 02:54:19;;;;;;;20.45;10.30;;;-2.60;99.90;;;;;;5087369;28;20051;-83
2021/12/21 02:56:46;;;;;;;22.95;10.23;;;-2.70;99.90;;;;;;5069624;28;20047;-82
2021/12/21 02:59:12;;;;;;;19.75;10.95;;;-2.70;99.90;;;;;;5071700;28;20138;-83
2021/12/21 03:01:39;;;;;;;19.90;9.93;;;-2.70;99.90;;;;;;5071014;28;20051;-82
2021/12/21 03:04:07;;;;;;;23.67;10.80;;;-2.70;99.90;;;;;;5091928;28;20058;-82
2021/12/21 03:14:22;;;;;;;22.00;10.02;;;-2.80;99.90;;;;;;5092075;28;19964;-82
2021/12/21 03:16:47;;;;;;;23.80;10.43;;;-2.80;99.90;;;;;;5091279;28;20039;-82
2021/12/21 03:19:13;;;;;;;23.23;10.30;;;-2.80;99.90;;;;;;5092102;28;20503;-81
2021/12/21 03:21:40;;;;;;;20.42;9.88;;;-2.80;99.90;;;;;;5075078;28;20160;-82
2021/12/21 03:24:07;;;;;;;19.75;9.57;;;-2.80;99.90;;;;;;5076710;28;20059;-82
2021/12/21 03:26:32;;;;;;;25.17;11.55;;;-2.80;99.90;;;;;;5123207;27;20130;-82
2021/12/21 03:28:58;;;;;;;25.52;11.88;;;-1.70;99.90;;;;;;5096837;28;20188;-82
2021/12/21 03:31:24;;;;;;;21.45;10.07;;;-3.00;99.90;;;;;;5091719;28;20066;-82
2021/12/21 03:33:51;;;;;;;25.73;11.88;;;-3.00;99.90;;;;;;5074287;28;20035;-82
2021/12/21 03:36:17;;;;;;;23.35;11.63;;;-3.00;99.90;;;;;;5101045;27;20070;-82
2021/12/21 03:38:56;;;;;;;22.30;9.98;;;-3.00;99.90;;;;;;5095530;27;20047;-82
2021/12/21 03:41:22;;;;;;;20.17;9.82;;;-3.00;99.90;;;;;;5100872;28;20165;-81
2021/12/21 03:43:48;;;;;;;23.42;10.43;;;-3.00;99.90;;;;;;5101066;27;20118;-82
2021/12/21 03:46:15;;;;;;;22.55;10.75;;;-3.00;99.90;;;;;;5075472;28;20070;-82
2021/12/21 03:48:45;;;;;;;26.35;11.93;;;-3.00;99.90;;;;;;5090719;28;20149;-83
2021/12/21 03:51:11;;;;;;;23.98;10.48;;;-3.00;99.90;;;;;;5087647;27;20047;-82
2021/12/21 03:53:38;;;;;;;23.27;10.82;;;-3.00;99.90;;;;;;5096515;28;20051;-82
2021/12/21 03:56:37;;;;;;;20.52;9.88;;;-3.00;99.90;;;;;;5074901;28;20396;-82
2021/12/21 03:58:51;;;;;;;22.05;10.48;;;-3.00;99.90;;;;;;5107134;27;20047;-82
2021/12/21 04:01:17;;;;;;;23.50;10.27;;;-3.10;99.90;;;;;;5106909;28;20102;-82
2021/12/21 04:03:43;;;;;;;19.52;9.90;;;-3.10;99.90;;;;;;5090700;28;20131;-82
2021/12/21 04:06:09;;;;;;;21.95;11.07;;;-3.10;99.90;;;;;;5086611;28;20134;-82
2021/12/21 04:08:34;;;;;;;24.63;10.93;;;-3.10;99.90;;;;;;5087363;28;20078;-82
2021/12/21 04:11:02;;;;;;;22.77;11.30;;;-3.10;99.90;;;;;;5074633;28;20039;-82
2021/12/21 04:13:29;;;;;;;20.88;10.57;;;-3.10;99.90;;;;;;5090801;28;20105;-82
2021/12/21 04:15:55;;;;;;;23.85;10.95;;;-3.20;99.90;;;;;;5072596;28;20039;-82
2021/12/21 04:18:23;;;;;;;23.40;11.00;;;-3.20;99.90;;;;;;5090494;28;20101;-82
2021/12/21 04:20:50;;;;;;;22.20;10.40;;;-3.20;99.90;;;;;;5103422;27;20042;-81
2021/12/21 04:23:16;;;;;;;24.38;11.05;;;-3.20;99.90;;;;;;5092349;28;20039;-82
2021/12/21 04:25:41;;;;;;;22.60;10.68;;;-3.20;99.90;;;;;;5090320;28;20084;-81
2021/12/21 04:28:07;;;;;;;24.65;12.05;;;-3.20;99.90;;;;;;5100208;27;20134;-81
2021/12/21 04:30:33;;;;;;;26.48;12.07;;;-3.20;99.90;;;;;;5093818;27;20462;-82
2021/12/21 04:32:58;;;;;;;24.17;11.30;;;-3.20;99.90;;;;;;5077990;28;20043;-81
2021/12/21 04:35:24;;;;;;;20.60;10.65;;;-3.30;99.90;;;;;;5091271;28;20122;-81
2021/12/21 04:37:57;;;;;;;23.88;10.90;;;-3.30;99.90;;;;;;5074032;28;20473;-81
2021/12/21 04:40:36;;;;;;;28.70;11.38;;;-3.30;99.90;;;;;;5089213;28;20074;-82
2021/12/21 04:43:01;;;;;;;20.27;9.88;;;-3.30;99.90;;;;;;5081338;27;20050;-81
2021/12/21 04:45:27;;;;;;;26.17;10.20;;;-3.30;99.90;;;;;;5073174;28;20052;-81
2021/12/21 04:47:52;;;;;;;22.70;10.73;;;-3.00;99.90;;;;;;5072014;28;20058;-81
2021/12/21 04:50:18;;;;;;;20.48;9.40;;;-3.30;99.90;;;;;;5087237;28;20504;-81
2021/12/21 04:52:44;;;;;;;20.88;9.80;;;-3.30;99.90;;;;;;5074705;28;20050;-81
2021/12/21 04:55:10;;;;;;;20.20;10.35;;;-3.30;99.90;;;;;;5106545;27;20043;-80
2021/12/21 04:57:35;;;;;;;21.33;10.30;;;-3.40;99.90;;;;;;5072863;28;20043;-80
2021/12/21 05:00:02;;;;;;;24.10;9.50;;;-3.40;99.90;;;;;;5085896;27;20406;-80
2021/12/21 05:02:28;;;;;;;18.50;9.18;;;-3.40;99.90;;;;;;5081258;28;20051;-80
2021/12/21 05:04:53;;;;;;;18.85;9.07;;;-3.40;99.90;;;;;;5086367;28;20176;-80
2021/12/21 05:07:23;;;;;;;19.30;8.63;;;-3.40;99.90;;;;;;5086646;28;20055;-80
2021/12/21 05:09:55;;;;;;;21.38;9.25;;;-3.40;99.90;;;;;;5070147;28;20048;-80
2021/12/21 05:12:22;;;;;;;20.38;9.05;;;-3.50;99.90;;;;;;5124729;27;20067;-80
2021/12/21 05:14:47;;;;;;;18.00;8.98;;;-3.50;99.90;;;;;;5081462;28;20046;-80
2021/12/21 05:17:13;;;;;;;20.67;9.38;;;-3.50;99.90;;;;;;5088466;28;20047;-80
2021/12/21 05:19:39;;;;;;;14.57;7.72;;;-3.50;99.90;;;;;;5084595;28;20504;-80
2021/12/21 05:22:04;;;;;;;18.27;8.82;;;-3.50;99.90;;;;;;5073874;28;20495;-80
2021/12/21 05:24:30;;;;;;;18.85;8.55;;;-3.50;99.90;;;;;;5083100;28;20062;-80
2021/12/21 05:26:56;;;;;;;15.55;7.90;;;-3.50;99.90;;;;;;5081119;27;20453;-80
2021/12/21 05:29:23;;;;;;;16.70;8.52;;;-3.50;99.90;;;;;;5093182;28;20538;-80
2021/12/21 05:31:49;;;;;;;22.02;9.20;;;-3.50;99.90;;;;;;5104082;27;20078;-80
2021/12/21 05:34:16;;;;;;;14.82;7.78;;;-3.50;99.90;;;;;;5095283;27;20044;-81
2021/12/21 05:36:42;;;;;;;21.15;8.52;;;-3.50;99.90;;;;;;5114045;27;20121;-81
2021/12/21 05:39:16;;;;;;;21.75;9.02;;;-3.50;99.90;;;;;;5110006;27;20583;-80
2021/12/21 05:41:51;;;;;;;20.00;8.15;;;-3.60;99.90;;;;;;5116681;27;20057;-80
2021/12/21 05:44:22;;;;;;;18.60;8.05;;;-3.60;99.90;;;;;;5109973;27;20380;-80
2021/12/21 05:46:49;;;;;;;22.80;9.18;;;-3.60;99.90;;;;;;5108216;27;20047;-80
2021/12/21 05:49:15;;;;;;;18.02;8.10;;;-3.60;99.90;;;;;;5100910;27;20083;-80
2021/12/21 05:51:41;;;;;;;18.35;8.45;;;-3.60;99.90;;;;;;5079412;28;20035;-80
2021/12/21 05:54:07;;;;;;;25.83;8.80;;;-3.70;99.90;;;;;;5123354;27;20143;-80
2021/12/21 05:56:33;;;;;;;13.07;7.03;;;-3.70;99.90;;;;;;5115909;27;20039;-80
2021/12/21 05:59:00;;;;;;;17.13;7.88;;;-3.60;99.90;;;;;;5096115;28;20702;-80
2021/12/21 06:01:26;;;;;;;16.48;8.23;;;-3.70;99.90;;;;;;5097790;27;20050;-80
2021/12/21 06:03:51;;;;;;;19.42;8.43;;;-3.70;99.90;;;;;;5100167;28;20044;-80
2021/12/21 06:06:17;;;;;;;20.52;7.85;;;-3.70;99.90;;;;;;5103155;27;20113;-81
2021/12/21 06:08:46;;;;;;;18.92;8.05;;;-3.70;99.90;;;;;;5093211;28;20044;-80
2021/12/21 06:11:14;;;;;;;18.75;7.88;;;-3.70;99.90;;;;;;5089013;27;20050;-80
2021/12/21 06:27:07;;;;;;;15.52;7.43;;;-3.80;99.90;;;;;;5117937;27;20078;-80
2021/12/21 06:29:33;;;;;;;14.05;6.60;;;-3.80;99.90;;;;;;5101853;27;20031;-80
2021/12/21 06:31:59;;;;;;;18.77;8.15;;;-3.80;99.90;;;;;;5126271;27;20538;-80
2021/12/21 06:34:25;;;;;;;19.00;8.60;;;-3.80;99.90;;;;;;5118937;27;20039;-79
2021/12/21 06:36:51;;;;;;;17.50;7.75;;;-3.80;99.90;;;;;;5105141;27;20086;-79
2021/12/21 06:39:17;;;;;;;21.50;8.13;;;-3.80;99.90;;;;;;5091624;27;20066;-79
2021/12/21 06:41:44;;;;;;;19.27;9.10;;;-3.80;99.90;;;;;;5098401;28;20040;-79
2021/12/21 06:44:12;;;;;;;20.05;9.60;;;-3.80;99.90;;;;;;5108678;27;20107;-79
2021/12/21 06:46:53;;;;;;;21.52;9.15;;;-3.80;99.90;;;;;;5079268;28;20083;-79
2021/12/21 06:52:04;;;;;;;19.08;9.32;;;-3.80;99.90;;;;;;5109113;27;20055;-79
2021/12/21 06:54:30;;;;;;;19.08;10.07;;;-3.90;99.90;;;;;;5091487;27;20606;-78
2021/12/21 06:56:56;;;;;;;19.45;8.45;;;-3.90;99.90;;;;;;5122734;28;20126;-78
2021/12/21 06:59:22;;;;;;;20.92;8.90;;;-3.90;99.90;;;;;;5105516;28;20519;-79
2021/12/21 07:01:49;;;;;;;18.85;8.77;;;-3.90;99.90;;;;;;5104699;28;20039;-79
2021/12/21 07:04:17;;;;;;;24.58;9.20;;;-3.90;99.90;;;;;;5099861;28;20070;-79
2021/12/21 07:06:45;;;;;;;19.83;8.50;;;-3.90;99.90;;;;;;5079775;28;20047;-78
2021/12/21 07:09:20;;;;;;;20.63;8.75;;;-3.90;99.90;;;;;;5093540;27;20047;-79
2021/12/21 07:11:54;;;;;;;20.42;9.07;;;-3.90;99.90;;;;;;5083558;28;20527;-79
2021/12/21 07:19:49;;;;;;;17.58;8.80;;;-3.90;99.90;;;;;;5098853;28;20048;-79
2021/12/21 07:22:15;;;;;;;17.83;9.10;;;-3.30;99.90;;;;;;5081640;27;20051;-79
2021/12/21 07:24:41;;;;;;;19.10;9.52;;;-3.90;99.90;;;;;;5102911;28;20043;-79
2021/12/21 07:27:07;;;;;;;18.77;8.57;;;-3.90;99.90;;;;;;5101696;28;20043;-79
2021/12/21 07:29:33;;;;;;;22.63;9.13;;;-4.00;99.90;;;;;;5097778;28;20054;-80
2021/12/21 07:31:59;;;;;;;18.02;8.98;;;-3.90;99.90;;;;;;5096680;27;20758;-80
2021/12/21 07:34:24;;;;;;;17.45;8.68;;;-3.90;99.90;;;;;;5079633;28;20047;-80
2021/12/21 07:36:50;;;;;;;21.30;9.63;;;-3.90;99.90;;;;;;5078201;28;20118;-81
2021/12/21 07:39:20;;;;;;;24.23;9.57;;;-3.90;99.90;;;;;;5080276;28;20032;-80
2021/12/21 07:41:46;;;;;;;20.63;9.65;;;-3.90;99.90;;;;;;5092858;28;20299;-80
2021/12/21 07:44:13;;;;;;;20.42;8.68;;;-3.90;99.90;;;;;;5082125;28;20047;-80
2021/12/21 07:46:40;;;;;;;21.17;9.38;;;-3.90;99.90;;;;;;5074587;27;20047;-78
2021/12/21 07:49:07;;;;;;;22.77;9.88;;;-3.90;99.90;;;;;;5096508;27;20123;-79
2021/12/21 07:51:33;;;;;;;21.05;10.07;;;-3.90;99.90;;;;;;5097864;27;20046;-78
2021/12/21 07:53:58;;;;;;;20.77;10.23;;;-3.30;99.90;;;;;;5103328;27;20043;-79
2021/12/21 07:56:24;;;;;;;21.67;9.48;;;-3.90;99.90;;;;;;5106492;27;20035;-80
2021/12/21 07:58:50;;;;;;;20.15;10.35;;;-3.90;99.90;;;;;;5105654;27;20131;-79
2021/12/21 08:01:17;;;;;;;19.17;9.43;;;-3.90;99.90;;;;;;5090732;27;20136;-80
2021/12/21 08:03:43;;;;;;;19.02;9.70;;;-3.90;99.90;;;;;;5104958;27;20055;-80
2021/12/21 08:06:12;;;;;;;18.05;9.48;;;-3.80;99.90;;;;;;5106675;27;20126;-80
2021/12/21 08:08:41;;;;;;;20.50;9.50;;;-3.80;99.90;;;;;;5101992;27;20074;-79
2021/12/21 08:13:48;;;;;;;23.65;10.45;;;-3.80;99.90;;;;;;5107143;27;20415;-79
2021/12/21 08:16:14;;;;;;;18.85;9.93;;;-3.80;99.90;;;;;;5117283;27;20048;-79
2021/12/21 08:18:40;;;;;;;21.80;10.02;;;-3.80;99.90;;;;;;5102307;27;20054;-79
2021/12/21 08:21:07;;;;;;;22.52;10.00;;;-3.80;99.90;;;;;;5101359;27;20042;-78
2021/12/21 08:23:34;;;;;;;24.83;10.35;;;-3.70;99.90;;;;;;5082421;27;20047;-82
2021/12/21 08:26:00;;;;;;;17.90;9.70;;;-3.70;99.90;;;;;;5100356;27;20119;-80
2021/12/21 08:28:26;;;;;;;20.73;9.93;;;-3.70;99.90;;;;;;5083989;27;20044;-81
2021/12/21 08:30:52;;;;;;;25.30;10.20;;;-3.60;99.90;;;;;;5101086;27;20268;-81
2021/12/21 08:33:17;;;;;;;20.13;10.25;;;-3.60;99.90;;;;;;5102055;27;20054;-81
2021/12/21 08:35:44;;;;;;;25.10;10.35;;;-3.60;99.90;;;;;;5085383;27;20051;-80
2021/12/21 08:38:14;;;;;;;21.85;10.35;;;-3.60;99.90;;;;;;5105596;27;20046;-81
2021/12/21 08:40:41;;;;;;;25.60;10.48;;;-3.50;99.90;;;;;;5104021;27;20057;-81
2021/12/21 08:43:13;;;;;;;25.25;11.57;;;-3.50;99.90;;;;;;5086016;27;20706;-80
2021/12/21 08:45:43;;;;;;;19.75;10.95;;;-3.50;99.90;;;;;;5112417;27;20046;-80
2021/12/21 08:48:09;;;;;;;27.42;11.38;;;-3.40;99.90;;;;;;5083846;27;20043;-81
2021/12/21 08:50:36;;;;;;;22.70;11.85;;;-3.40;99.90;;;;;;5081981;28;20090;-81
2021/12/21 08:53:03;;;;;;;27.83;11.65;;;-3.40;99.90;;;;;;5076987;27;20141;-81
2021/12/21 08:55:29;;;;;;;24.08;11.48;;;-2.70;99.90;;;;;;5105763;27;20221;-81
2021/12/21 08:57:55;;;;;;;21.55;11.75;;;-3.30;99.90;;;;;;5102731;27;20581;-81
2021/12/21 09:00:21;;;;;;;23.67;11.20;;;-3.20;99.90;;;;;;5097879;27;20723;-81
2021/12/21 09:02:47;;;;;;;23.75;12.35;;;-3.20;99.90;;;;;;5089827;27;20130;-83
2021/12/21 09:05:18;;;;;;;21.40;12.40;;;-3.20;99.90;;;;;;5088980;27;20056;-82
2021/12/21 09:07:46;;;;;;;28.20;12.00;;;-3.10;99.90;;;;;;5089559;27;20077;-81
2021/12/21 09:10:13;;;;;;;27.38;12.27;;;-3.00;99.90;;;;;;5092093;27;20596;-82
2021/12/21 09:12:39;;;;;;;25.88;13.15;;;-3.10;99.90;;;;;;5117469;27;20088;-82
2021/12/21 09:15:07;;;;;;;31.67;13.35;;;-3.00;99.90;;;;;;5103585;27;20212;-82
2021/12/21 09:17:33;;;;;;;23.35;13.00;;;-2.90;99.90;;;;;;5086658;28;20191;-83
2021/12/21 09:19:59;;;;;;;23.98;12.32;;;-2.90;99.90;;;;;;5076640;27;20035;-84
2021/12/21 09:22:25;;;;;;;27.65;13.75;;;-2.80;99.90;;;;;;5087282;27;20058;-84
2021/12/21 09:24:52;;;;;;;25.80;13.45;;;-2.70;99.90;;;;;;5117572;27;20047;-86
2021/12/21 09:27:18;;;;;;;23.13;12.95;;;-2.60;99.90;;;;;;5091273;27;20059;-85
2021/12/21 09:29:45;;;;;;;26.92;13.65;;;-2.50;99.90;;;;;;5106747;27;20628;-86
2021/12/21 09:32:13;;;;;;;28.65;14.02;;;-2.40;99.90;;;;;;5107681;27;20138;-86
2021/12/21 09:34:43;;;;;;;27.75;13.35;;;-2.30;99.90;;;;;;5101326;28;20055;-87
2021/12/21 09:37:17;;;;;;;28.55;12.88;;;-0.90;99.90;;;;;;5070317;28;20082;-87
2021/12/21 09:40:03;;;;;;;22.92;12.70;;;-2.20;99.90;;;;;;5078891;28;20105;-87
2021/12/21 09:42:30;;;;;;;27.92;11.90;;;-2.20;99.90;;;;;;5065534;28;20720;-88
2021/12/21 09:44:57;;;;;;;26.13;11.88;;;-2.00;99.90;;;;;;5055927;27;20196;-88
2021/12/21 09:47:24;;;;;;;29.48;12.73;;;-0.60;99.90;;;;;;5066837;28;20052;-87
2021/12/21 09:49:50;;;;;;;30.88;12.27;;;-1.90;99.90;;;;;;5067131;28;20051;-86
2021/12/21 09:52:23;;;;;;;21.40;11.68;;;-1.80;99.90;;;;;;5067308;28;20063;-86
2021/12/21 09:54:49;;;;;;;23.33;12.48;;;-1.70;99.90;;;;;;5065490;28;20047;-87
2021/12/21 09:57:16;;;;;;;27.05;12.23;;;-0.50;99.90;;;;;;5064617;28;20040;-87
2021/12/21 09:59:44;;;;;;;24.02;11.20;;;-1.60;99.90;;;;;;5067328;28;20116;-87
2021/12/21 10:02:09;;;;;;;28.08;11.57;;;-1.50;99.90;;;;;;5072534;28;20241;-87
2021/12/21 10:04:51;;;;;;;25.63;11.68;;;-1.40;99.90;;;;;;5077338;28;20047;-88
2021/12/21 10:07:18;;;;;;;21.77;10.93;;;-1.40;99.90;;;;;;5059726;28;20115;-88
2021/12/21 10:09:46;;;;;;;23.58;10.63;;;-1.30;99.90;;;;;;5070187;28;20044;-86
2021/12/21 10:12:34;;;;;;;19.70;10.07;;;-1.10;99.90;;;;;;5095644;28;20255;-89
2021/12/21 10:15:18;;;;;;;22.27;11.07;;;-1.10;99.90;;;;;;5067741;28;20050;-91
2021/12/21 10:17:50;;;;;;;23.63;11.52;;;-0.20;99.90;;;;;;5071160;28;20127;-90
2021/12/21 10:20:31;;;;;;;25.15;10.57;;;-1.00;99.90;;;;;;5072447;28;20515;-91
2021/12/21 10:22:57;;;;;;;21.52;10.75;;;-0.90;99.90;;;;;;5089624;28;20637;-89
2021/12/21 10:25:25;;;;;;;21.38;10.57;;;-0.80;99.90;;;;;;5088724;28;20107;-90
2021/12/21 10:27:51;;;;;;;21.38;10.15;;;-0.80;99.90;;;;;;5072023;28;20051;-91
2021/12/21 10:30:17;;;;;;;23.30;10.48;;;-0.70;99.90;;;;;;5073869;28;20086;-90
2021/12/21 10:32:52;;;;;;;22.33;10.57;;;-0.60;99.90;;;;;;5074254;28;20063;-91
2021/12/21 10:35:18;;;;;;;20.65;10.13;;;-0.70;99.90;;;;;;5100302;27;20043;-91
2021/12/21 10:37:47;;;;;;;22.90;10.07;;;0.60;99.90;;;;;;5093634;27;20049;-91
2021/12/21 10:40:27;;;;;;;20.45;10.48;;;1.10;99.90;;;;;;5105559;27;20051;-91
2021/12/21 10:43:09;;;;;;;28.42;9.88;;;-0.50;99.90;;;;;;5092042;27;20042;-91
2021/12/21 10:45:41;;;;;;;18.75;9.05;;;1.20;99.90;;;;;;5094595;27;20050;-91
2021/12/21 10:48:16;;;;;;;18.83;8.65;;;0.60;99.90;;;;;;5092937;28;20430;-92
2021/12/21 10:50:43;;;;;;;17.65;8.60;;;-0.30;99.90;;;;;;5096514;27;20521;-92
2021/12/21 10:53:25;;;;;;;20.90;8.43;;;-0.40;99.90;;;;;;5083573;28;20073;-93
2021/12/21 10:56:04;;;;;;;19.38;9.95;;;-0.20;99.90;;;;;;5086844;28;20182;-91
2021/12/21 10:58:50;;;;;;;18.10;8.63;;;1.30;99.90;;;;;;5087365;28;20053;-91
2021/12/21 11:01:26;;;;;;;22.42;8.95;;;0.00;99.90;;;;;;5090382;28;20102;-91
2021/12/21 11:03:55;;;;;;;21.55;8.25;;;0.00;99.90;;;;;;5106102;28;20498;-92
2021/12/21 11:06:29;;;;;;;23.23;9.40;;;0.00;99.90;;;;;;5125526;27;20048;-91
2021/12/21 11:08:57;;;;;;;20.60;9.40;;;0.10;99.90;;;;;;5091124;27;20383;-89
2021/12/21 11:11:34;;;;;;;21.05;9.52;;;1.50;99.90;;;;;;5110025;28;20391;-89
2021/12/21 11:14:13;;;;;;;21.85;8.80;;;0.30;99.90;;;;;;5100056;27;20031;-90
2021/12/21 11:16:48;;;;;;;20.55;7.47;;;1.00;99.90;;;;;;5090646;27;20122;-89
2021/12/21 11:19:16;;;;;;;22.05;8.85;;;0.40;99.90;;;;;;5091989;27;20041;-90
2021/12/21 11:21:44;;;;;;;16.30;8.23;;;1.80;99.90;;;;;;5073520;28;20151;-89
2021/12/21 11:24:15;;;;;;;19.15;7.60;;;1.90;99.90;;;;;;5092936;27;20075;-89
2021/12/21 11:26:43;;;;;;;20.00;8.18;;;0.50;99.90;;;;;;5106915;27;20044;-89
2021/12/21 11:29:14;;;;;;;19.30;7.75;;;0.50;99.90;;;;;;5095491;27;20038;-89
2021/12/21 11:31:47;;;;;;;17.77;7.97;;;0.60;99.90;;;;;;5112851;27;20450;-87
2021/12/21 11:34:18;;;;;;;20.17;7.80;;;0.70;99.90;;;;;;5109823;27;20071;-87
2021/12/21 11:39:32;;;;;;;14.23;6.80;;;0.60;99.90;;;;;;5109040;27;20036;-88
2021/12/21 11:42:00;;;;;;;19.13;7.43;;;0.90;99.90;;;;;;5114570;27;20041;-90
2021/12/21 11:44:40;;;;;;;17.38;8.20;;;0.90;99.90;;;;;;5122945;27;20126;-89
2021/12/21 11:47:12;;;;;;;18.67;7.40;;;1.00;99.90;;;;;;5108216;27;20484;-89
2021/12/21 11:49:55;;;;;;;13.93;7.28;;;1.00;99.90;;;;;;5101996;27;20043;-89
2021/12/21 11:52:24;;;;;;;12.63;6.60;;;1.80;99.90;;;;;;5109109;27;20047;-88
2021/12/21 11:54:57;;;;;;;13.57;6.63;;;1.10;99.90;;;;;;5112326;27;20078;-87
2021/12/21 11:57:47;;;;;;;15.98;6.50;;;1.20;99.90;;;;;;5087913;27;20055;-88
2021/12/21 12:00:16;;;;;;;16.77;7.55;;;1.30;99.90;;;;;;5108772;27;20061;-86
2021/12/21 12:02:44;;;;;;;14.70;6.35;;;1.30;99.90;;;;;;5093223;27;20050;-86
2021/12/21 12:05:24;;;;;;;16.55;6.43;;;1.40;99.90;;;;;;5106001;27;20027;-86
2021/12/21 12:08:04;;;;;;;14.27;5.97;;;2.50;99.90;;;;;;5094049;27;20045;-86
2021/12/21 12:10:31;;;;;;;14.23;5.82;;;1.50;99.90;;;;;;5111884;27;20601;-85
2021/12/21 12:13:30;;;;;;;13.43;5.90;;;1.50;99.90;;;;;;5094836;27;20039;-85
2021/12/21 12:16:10;;;;;;;14.10;6.10;;;1.60;99.90;;;;;;5080083;27;20038;-85
2021/12/21 12:18:48;;;;;;;15.32;6.30;;;1.60;99.90;;;;;;5104165;27;20043;-85
2021/12/21 12:21:23;;;;;;;13.45;5.75;;;1.60;99.90;;;;;;5089677;27;20043;-86
2021/12/21 12:23:49;;;;;;;14.90;5.90;;;1.70;99.90;;;;;;5081873;27;20443;-85
2021/12/21 12:26:55;;;;;;;16.58;5.85;;;2.30;99.90;;;;;;5126613;27;20079;-85
2021/12/21 12:29:20;;;;;;;12.93;5.30;;;1.80;99.90;;;;;;5069971;27;20065;-85
2021/12/21 12:31:58;;;;;;;14.65;5.05;;;1.80;99.90;;;;;;5097554;27;20405;-85
2021/12/21 12:34:28;;;;;;;12.75;4.38;;;1.80;99.90;;;;;;5108330;27;20081;-87
2021/12/21 12:36:55;;;;;;;12.82;6.00;;;1.80;99.90;;;;;;5090491;27;20130;-87
2021/12/21 12:39:43;;;;;;;17.67;5.20;;;1.80;99.90;;;;;;5092740;27;20031;-87
2021/12/21 12:42:23;;;;;;;16.75;5.63;;;1.80;99.90;;;;;;5104508;27;20442;-88
2021/12/21 12:45:02;;;;;;;14.15;5.03;;;1.90;99.90;;;;;;5095574;27;21798;-88
2021/12/21 12:47:28;;;;;;;17.77;5.28;;;1.90;99.90;;;;;;5086317;27;20047;-88
2021/12/21 12:49:55;;;;;;;12.82;4.93;;;1.90;99.90;;;;;;5077650;28;20107;-88
2021/12/21 12:52:31;;;;;;;10.43;4.68;;;1.90;99.90;;;;;;5104175;27;20050;-87
2021/12/21 12:55:00;;;;;;;9.63;4.03;;;1.90;99.90;;;;;;5090484;27;20081;-88
2021/12/21 12:57:25;;;;;;;14.38;4.80;;;1.90;99.90;;;;;;5106216;27;20039;-87
2021/12/21 12:59:54;;;;;;;11.30;4.68;;;2.00;99.90;;;;;;5100597;27;20054;-88
2021/12/21 13:02:20;;;;;;;13.48;4.72;;;2.00;99.90;;;;;;5125927;27;20118;-87
2021/12/21 13:04:47;;;;;;;11.20;4.50;;;2.00;99.90;;;;;;5110822;27;20121;-86
2021/12/21 13:07:14;;;;;;;9.35;3.97;;;2.00;99.90;;;;;;5092268;27;20043;-86
2021/12/21 13:09:40;;;;;;;12.32;4.30;;;2.00;99.90;;;;;;5100256;27;20154;-86
2021/12/21 13:12:11;;;;;;;11.60;4.63;;;2.00;99.90;;;;;;5099759;27;20551;-87
2021/12/21 13:14:36;;;;;;;11.48;4.45;;;2.00;99.90;;;;;;5099556;27;20043;-89
2021/12/21 13:17:02;;;;;;;10.60;4.25;;;2.00;99.90;;;;;;5086914;27;20059;-87
2021/12/21 13:19:30;;;;;;;11.80;4.55;;;1.90;99.90;;;;;;5108620;27;20047;-85
2021/12/21 13:21:58;;;;;;;9.85;4.13;;;1.90;99.90;;;;;;5105769;27;20141;-84
2021/12/21 13:24:39;;;;;;;12.27;4.63;;;1.90;99.90;;;;;;5106038;27;20078;-84
2021/12/21 13:27:10;;;;;;;10.40;4.72;;;1.90;99.90;;;;;;5081436;28;20649;-85
2021/12/21 13:29:36;;;;;;;13.48;5.55;;;2.00;99.90;;;;;;5091369;27;20051;-86
2021/12/21 13:32:08;;;;;;;10.48;4.65;;;1.90;99.90;;;;;;5100954;27;20104;-88
2021/12/21 13:34:35;;;;;;;18.00;5.60;;;2.00;99.90;;;;;;5111304;27;20078;-87
2021/12/21 13:37:05;;;;;;;11.48;4.57;;;1.90;99.90;;;;;;5086487;28;20047;-86
2021/12/21 13:39:40;;;;;;;16.55;5.32;;;2.00;99.90;;;;;;5106302;27;20063;-87
2021/12/21 13:42:18;;;;;;;12.98;4.72;;;2.00;99.90;;;;;;5088156;27;20061;-88
2021/12/21 13:44:44;;;;;;;14.65;4.90;;;2.00;99.90;;;;;;5089364;27;20303;-86
2021/12/21 13:47:18;;;;;;;15.00;5.22;;;1.90;99.90;;;;;;5091609;27;20035;-86